Time;durP1;ratioP1;P1;durP2;ratioP2;P2;SDS_P1;SDS_P2;PMS_P1;PMS_P2;Temp;Humidity;BMP_temperature;BMP_pressure;BME280_temperature;BME280_humidity;BME280_pressure;Samples;Min_cycle;Max_cycle;Signal;HPM_P1;HPM_P2
2022/01/15 00:00:36;;;;;;;14.60;8.93;;;;;;;-1.28;100.00;96543.94;5070544;28;20300;-66
2022/01/15 00:03:04;;;;;;;14.93;9.53;;;;;;;-1.31;100.00;96539.97;5070535;28;20248;-66
2022/01/15 00:05:30;;;;;;;16.70;8.93;;;;;;;-1.32;100.00;96538.38;5070547;28;20347;-66
2022/01/15 00:07:57;;;;;;;16.73;9.67;;;;;;;-1.32;100.00;96542.94;5070951;28;20210;-66
2022/01/15 00:10:26;;;;;;;13.00;8.47;;;;;;;-1.37;100.00;96540.38;5070380;28;20194;-66
2022/01/15 00:12:51;;;;;;;13.43;8.67;;;;;;;-1.42;100.00;96543.16;5070739;28;20204;-66
2022/01/15 00:15:26;;;;;;;16.17;9.13;;;;;;;-1.47;100.00;96545.91;5070555;28;20221;-66
2022/01/15 00:18:00;;;;;;;13.57;8.43;;;;;;;-1.50;100.00;96538.47;5070248;28;20205;-66
2022/01/15 00:20:27;;;;;;;11.83;7.93;;;;;;;-1.53;100.00;96545.22;5070161;28;20247;-66
2022/01/15 00:22:54;;;;;;;14.17;7.97;;;;;;;-1.55;100.00;96543.94;5070440;28;20217;-65
2022/01/15 00:25:21;;;;;;;11.10;7.60;;;;;;;-1.56;100.00;96537.78;5070234;28;20208;-65
2022/01/15 00:27:46;;;;;;;13.07;8.23;;;;;;;-1.59;100.00;96533.06;5069879;28;20256;-65
2022/01/15 00:30:13;;;;;;;14.50;8.33;;;;;;;-1.59;100.00;96537.59;5070206;28;20219;-65
2022/01/15 00:32:39;;;;;;;11.97;7.77;;;;;;;-1.61;100.00;96539.78;5070409;28;20288;-52
2022/01/15 00:35:06;;;;;;;13.87;7.90;;;;;;;-1.61;100.00;96539.78;5070226;28;20312;-65
2022/01/15 00:37:32;;;;;;;10.30;7.23;;;;;;;-1.62;100.00;96540.88;5070320;28;20229;-58
2022/01/15 00:39:58;;;;;;;11.27;7.60;;;;;;;-1.64;100.00;96535.03;5069764;28;20190;-58
2022/01/15 00:42:25;;;;;;;11.87;7.20;;;;;;;-1.65;100.00;96522.72;5070104;28;20210;-57
2022/01/15 00:44:51;;;;;;;13.50;8.00;;;;;;;-1.65;100.00;96528.88;5069984;28;20209;-57
2022/01/15 00:47:16;;;;;;;12.27;7.87;;;;;;;-1.62;100.00;96535.50;5069482;28;20210;-57
2022/01/15 00:49:42;;;;;;;11.37;7.70;;;;;;;-1.62;100.00;96527.50;5069869;28;20208;-58
2022/01/15 00:52:07;;;;;;;12.27;7.63;;;;;;;-1.64;100.00;96529.69;5069820;28;20251;-45
2022/01/15 00:54:32;;;;;;;12.93;7.63;;;;;;;-1.64;100.00;96518.97;5069945;28;20205;-45
2022/01/15 00:56:57;;;;;;;14.03;8.53;;;;;;;-1.68;100.00;96524.13;5069622;28;20294;-46
2022/01/15 00:59:23;;;;;;;15.27;8.40;;;;;;;-1.68;100.00;96523.34;5069926;28;20209;-45
2022/01/15 01:01:48;;;;;;;15.37;7.70;;;;;;;-1.70;100.00;96530.88;5069617;28;20198;-45
2022/01/15 01:04:13;;;;;;;12.17;7.53;;;;;;;-1.72;100.00;96522.31;5069844;28;20193;-46
2022/01/15 01:06:39;;;;;;;13.07;8.20;;;;;;;-1.75;100.00;96523.72;5069862;28;20285;-47
2022/01/15 01:09:04;;;;;;;12.73;7.57;;;;;;;-1.79;100.00;96527.31;5069243;28;20229;-54
2022/01/15 01:11:42;;;;;;;14.07;8.20;;;;;;;-1.81;100.00;96518.75;5069322;28;20170;-57
2022/01/15 01:20:07;;;;;;;14.23;8.50;;;;;;;-1.84;100.00;96524.72;5054194;28;20255;-66
2022/01/15 01:22:51;;;;;;;13.63;8.17;;;;;;;-1.86;100.00;96519.66;5045848;28;20201;-66
2022/01/15 01:24:49;;;;;;;13.80;8.57;;;;;;;-1.88;100.00;96523.72;5053835;28;20202;-65
2022/01/15 01:27:23;;;;;;;12.60;7.70;;;;;;;-1.92;100.00;96522.72;5068696;28;20186;-65
2022/01/15 01:32:46;;;;;;;11.73;7.17;;;;;;;-1.95;100.00;96517.97;5053515;28;20208;-58
2022/01/15 01:35:17;;;;;;;10.40;6.53;;;;;;;-1.97;100.00;96509.44;5069070;28;20218;-58
2022/01/15 01:37:48;;;;;;;10.53;6.97;;;;;;;-1.99;100.00;96506.28;5069227;28;20235;-58
2022/01/15 01:40:27;;;;;;;12.67;7.07;;;;;;;-2.01;100.00;96513.81;5069681;28;20197;-58
2022/01/15 01:45:20;;;;;;;13.33;7.70;;;;;;;-2.06;100.00;96500.50;5053447;28;20194;-58
2022/01/15 01:47:46;;;;;;;12.30;7.17;;;;;;;-2.08;100.00;96502.69;5069550;28;20200;-58
2022/01/15 01:50:22;;;;;;;10.83;7.23;;;;;;;-2.09;100.00;96495.75;5068878;28;20205;-53
2022/01/15 01:52:50;;;;;;;13.07;7.33;;;;;;;-2.13;100.00;96495.56;5069091;28;20193;-55
2022/01/15 01:55:19;;;;;;;14.70;9.33;;;;;;;-2.15;100.00;96489.69;5068940;28;20220;-53
2022/01/15 01:57:45;;;;;;;12.67;7.73;;;;;;;-2.16;100.00;96490.78;5052327;28;20194;-53
2022/01/15 02:00:13;;;;;;;14.97;8.20;;;;;;;-2.17;100.00;96488.41;5068972;28;20197;-54
2022/01/15 02:02:39;;;;;;;11.50;7.10;;;;;;;-2.20;100.00;96481.78;5068750;28;20355;-55
2022/01/15 02:05:05;;;;;;;11.50;6.83;;;;;;;-2.18;100.00;96481.47;5069027;28;20229;-46
2022/01/15 02:07:30;;;;;;;13.43;7.33;;;;;;;-2.19;100.00;96477.22;5068608;28;20288;-65
2022/01/15 02:09:57;;;;;;;10.27;7.07;;;;;;;-2.19;100.00;96485.25;5068699;28;20267;-64
2022/01/15 02:12:23;;;;;;;12.23;6.17;;;;;;;-2.20;100.00;96467.59;5069175;28;20190;-64
2022/01/15 02:14:49;;;;;;;11.77;6.70;;;;;;;-2.23;100.00;96469.00;5068668;28;20210;-63
2022/01/15 02:17:19;;;;;;;10.90;6.63;;;;;;;-2.22;100.00;96464.44;5068628;28;20205;-63
2022/01/15 02:25:15;;;;;;;10.07;6.33;;;;;;;-2.31;100.00;96467.00;5053897;28;20200;-58
2022/01/15 02:27:40;;;;;;;10.87;6.80;;;;;;;-2.32;100.00;96464.63;5068327;28;20198;-56
2022/01/15 02:30:06;;;;;;;10.63;6.43;;;;;;;-2.34;100.00;96450.78;5068399;28;20210;-58
2022/01/15 02:32:33;;;;;;;10.20;6.37;;;;;;;-2.32;100.00;96462.75;5068442;28;20189;-56
2022/01/15 02:35:01;;;;;;;12.37;6.40;;;;;;;-2.32;100.00;96454.72;5071267;28;20212;-57
2022/01/15 02:37:28;;;;;;;9.77;6.90;;;;;;;-2.33;100.00;96458.47;5071504;28;20198;-56
2022/01/15 02:39:54;;;;;;;10.83;6.03;;;;;;;-2.37;100.00;96452.13;5071652;28;20201;-56
2022/01/15 02:42:19;;;;;;;11.20;6.47;;;;;;;-2.42;100.00;96449.56;5071706;28;20205;-57
2022/01/15 02:44:45;;;;;;;10.60;6.67;;;;;;;-2.48;100.00;96448.06;5071744;28;20286;-58
2022/01/15 02:49:54;;;;;;;9.83;6.83;;;;;;;-2.47;100.00;96440.84;5056434;28;20251;-57
2022/01/15 02:52:19;;;;;;;10.70;6.77;;;;;;;-2.51;100.00;96437.16;5071967;28;20202;-57
2022/01/15 02:54:44;;;;;;;11.33;6.53;;;;;;;-2.54;100.00;96438.56;5071610;28;20368;-57
2022/01/15 02:57:10;;;;;;;10.73;6.60;;;;;;;-2.55;100.00;96438.84;5071815;28;20267;-58
2022/01/15 02:59:35;;;;;;;10.00;6.70;;;;;;;-2.58;100.00;96445.59;5071285;28;20348;-57
2022/01/15 03:02:00;;;;;;;9.33;5.83;;;;;;;-2.60;100.00;96430.91;5071343;28;20189;-66
2022/01/15 03:04:26;;;;;;;11.53;6.57;;;;;;;-2.64;100.00;96430.72;5071985;28;20193;-45
2022/01/15 03:06:51;;;;;;;9.33;6.10;;;;;;;-2.65;100.00;96423.78;5071284;28;20189;-46
2022/01/15 03:09:16;;;;;;;9.87;5.90;;;;;;;-2.65;100.00;96429.13;5071517;28;20205;-45
2022/01/15 03:11:42;;;;;;;8.30;6.30;;;;;;;-2.63;100.00;96415.47;5071196;28;20236;-49
2022/01/15 03:14:07;;;;;;;9.27;5.30;;;;;;;-2.63;100.00;96415.47;5071359;28;20273;-48
2022/01/15 03:16:32;;;;;;;13.83;9.23;;;;;;;-2.67;100.00;96414.44;5071031;28;20194;-46
2022/01/15 03:18:58;;;;;;;12.77;6.23;;;;;;;-2.70;100.00;96410.50;5071244;28;20206;-57
2022/01/15 03:21:23;;;;;;;10.37;6.23;;;;;;;-2.71;100.00;96402.78;5071704;28;20197;-66
2022/01/15 03:23:49;;;;;;;10.13;6.53;;;;;;;-2.73;100.00;96407.63;5071278;28;20198;-66
2022/01/15 03:26:14;;;;;;;9.83;5.77;;;;;;;-2.72;100.00;96403.88;5071270;28;20194;-65
2022/01/15 03:28:41;;;;;;;9.03;5.43;;;;;;;-2.72;100.00;96395.84;5070798;28;20205;-64
2022/01/15 03:31:07;;;;;;;12.10;6.83;;;;;;;-2.74;100.00;96398.03;5071448;28;20217;-66
2022/01/15 03:33:33;;;;;;;8.93;5.93;;;;;;;-2.75;100.00;96401.78;5071536;28;20281;-66
2022/01/15 03:35:58;;;;;;;10.40;6.10;;;;;;;-2.78;100.00;96392.47;5071120;28;20228;-65
2022/01/15 03:38:24;;;;;;;9.37;5.57;;;;;;;-2.74;100.00;96395.38;5071508;28;20300;-54
2022/01/15 03:40:52;;;;;;;8.83;5.43;;;;;;;-2.78;100.00;96389.00;5070971;28;20258;-58
2022/01/15 03:43:17;;;;;;;9.10;5.83;;;;;;;-2.84;100.00;96382.97;5070722;28;20198;-57
2022/01/15 03:45:42;;;;;;;8.97;5.47;;;;;;;-2.84;100.00;96392.88;5069620;28;20204;-59
2022/01/15 03:48:08;;;;;;;12.23;7.10;;;;;;;-2.80;100.00;96385.84;5070866;28;20201;-58
2022/01/15 03:50:33;;;;;;;6.90;4.73;;;;;;;-2.79;100.00;96384.75;5070603;28;20201;-58
2022/01/15 03:52:58;;;;;;;9.27;5.47;;;;;;;-2.80;100.00;96388.53;5070640;28;20193;-58
2022/01/15 03:55:25;;;;;;;8.27;5.17;;;;;;;-2.83;100.00;96387.22;5070790;28;20209;-57
2022/01/15 03:57:50;;;;;;;8.90;5.10;;;;;;;-2.88;100.00;96397.22;5070580;28;20216;-58
2022/01/15 04:00:21;;;;;;;7.13;4.43;;;;;;;-2.90;100.00;96394.03;5070996;28;20181;-58
2022/01/15 04:02:48;;;;;;;6.63;4.13;;;;;;;-2.95;100.00;96392.22;5054586;28;20194;-58
2022/01/15 04:05:14;;;;;;;9.20;5.40;;;;;;;-2.97;100.00;96393.59;5070974;28;20193;-58
2022/01/15 04:07:39;;;;;;;8.03;4.53;;;;;;;-3.01;100.00;96388.06;5070326;28;20225;-58
2022/01/15 04:10:07;;;;;;;7.53;4.50;;;;;;;-3.00;100.00;96386.97;5070320;28;20255;-58
2022/01/15 04:12:32;;;;;;;7.87;5.13;;;;;;;-2.99;100.00;96393.13;5070222;28;20209;-58
2022/01/15 04:14:58;;;;;;;7.10;4.50;;;;;;;-2.95;100.00;96386.13;5070263;28;20210;-65
2022/01/15 04:17:25;;;;;;;7.40;4.87;;;;;;;-2.93;100.00;96391.94;5070475;28;20200;-66
2022/01/15 04:19:50;;;;;;;7.93;4.80;;;;;;;-2.91;100.00;96393.25;5070378;28;20252;-66
2022/01/15 04:22:15;;;;;;;9.03;5.13;;;;;;;-2.90;100.00;96394.84;5070358;28;20201;-65
2022/01/15 04:24:41;;;;;;;8.37;5.33;;;;;;;-2.90;100.00;96394.03;5070334;28;20240;-65
2022/01/15 04:27:06;;;;;;;7.53;4.77;;;;;;;-2.92;100.00;96396.22;5069988;28;20247;-65
2022/01/15 04:29:33;;;;;;;8.43;4.60;;;;;;;-2.95;100.00;96388.78;5070197;28;20209;-66
2022/01/15 04:31:58;;;;;;;6.97;4.37;;;;;;;-2.95;100.00;96392.22;5070538;28;20268;-65
2022/01/15 04:34:29;;;;;;;5.93;4.67;;;;;;;-2.96;100.00;96389.88;5070169;28;20565;-58
2022/01/15 04:37:01;;;;;;;7.07;4.53;;;;;;;-2.97;100.00;96396.28;5070368;28;20292;-54
2022/01/15 04:39:27;;;;;;;7.03;4.80;;;;;;;-3.01;100.00;96397.97;5070250;28;20202;-54
2022/01/15 04:41:52;;;;;;;6.73;5.00;;;;;;;-3.00;100.00;96402.19;5069767;28;20259;-53
2022/01/15 04:44:18;;;;;;;6.27;4.33;;;;;;;-3.01;100.00;96397.97;5070037;28;20198;-53
2022/01/15 04:46:43;;;;;;;8.73;4.63;;;;;;;-3.00;100.00;96403.00;5069433;28;20276;-52
2022/01/15 04:49:08;;;;;;;8.87;4.53;;;;;;;-3.02;100.00;96396.38;5069715;28;20198;-53
2022/01/15 04:51:34;;;;;;;5.70;4.20;;;;;;;-3.05;100.00;96396.97;5069796;28;20204;-58
2022/01/15 04:54:00;;;;;;;8.67;4.47;;;;;;;-3.04;100.00;96395.88;5069899;28;20201;-58
2022/01/15 04:56:26;;;;;;;7.57;4.53;;;;;;;-3.05;100.00;96394.28;5069419;28;20201;-58
2022/01/15 04:58:51;;;;;;;6.50;4.30;;;;;;;-3.03;100.00;96389.47;5069659;28;20196;-58
2022/01/15 05:01:17;;;;;;;6.60;4.43;;;;;;;-3.03;100.00;96384.13;5069803;28;20285;-58
2022/01/15 05:03:42;;;;;;;5.77;4.17;;;;;;;-3.02;100.00;96385.69;5069961;28;20224;-58
2022/01/15 05:06:08;;;;;;;6.93;4.60;;;;;;;-2.99;100.00;96383.22;5069925;28;20251;-58
2022/01/15 05:08:33;;;;;;;7.10;4.60;;;;;;;-2.99;100.00;96385.13;5069414;28;20193;-55
2022/01/15 05:11:09;;;;;;;8.27;4.77;;;;;;;-2.98;100.00;96376.00;5069075;28;20193;-62
2022/01/15 05:13:36;;;;;;;6.80;4.23;;;;;;;-2.99;100.00;96385.13;5069549;28;20189;-58
2022/01/15 05:16:01;;;;;;;8.00;4.93;;;;;;;-2.98;100.00;96392.84;5069020;28;20213;-58
2022/01/15 05:18:26;;;;;;;8.57;4.80;;;;;;;-2.99;100.00;96385.13;5069409;28;20196;-58
2022/01/15 05:20:52;;;;;;;8.00;5.27;;;;;;;-2.98;100.00;96381.34;5069436;28;20194;-58
2022/01/15 05:23:17;;;;;;;7.23;4.70;;;;;;;-2.98;100.00;96384.03;5069477;28;20201;-58
2022/01/15 05:25:42;;;;;;;6.70;4.50;;;;;;;-2.97;100.00;96388.28;5069201;28;20237;-58
2022/01/15 05:28:08;;;;;;;7.93;5.00;;;;;;;-2.98;100.00;96397.38;5069931;28;20265;-57
2022/01/15 05:30:34;;;;;;;15.30;8.97;;;;;;;-3.02;100.00;96386.50;5069683;28;20208;-59
2022/01/15 05:32:59;;;;;;;8.30;5.20;;;;;;;-3.02;100.00;96388.38;5069676;28;20205;-58
2022/01/15 05:35:28;;;;;;;7.27;4.70;;;;;;;-3.02;100.00;96385.69;5069404;28;20243;-58
2022/01/15 05:37:58;;;;;;;9.73;5.33;;;;;;;-3.03;100.00;96386.78;5068940;28;20186;-58
2022/01/15 05:40:24;;;;;;;9.47;5.03;;;;;;;-3.05;100.00;96380.94;5069195;28;20279;-58
2022/01/15 05:42:51;;;;;;;11.47;5.70;;;;;;;-3.08;100.00;96386.84;5068842;28;20197;-58
2022/01/15 05:45:17;;;;;;;7.10;4.93;;;;;;;-3.10;100.00;96383.69;5069093;28;20286;-56
2022/01/15 05:47:42;;;;;;;9.83;5.43;;;;;;;-3.12;100.00;96386.66;5068883;28;20224;-58
2022/01/15 05:50:08;;;;;;;8.43;4.90;;;;;;;-3.11;100.00;96392.78;5069243;28;20194;-58
2022/01/15 05:52:33;;;;;;;9.60;4.70;;;;;;;-3.12;100.00;96393.88;5068786;28;20214;-58
2022/01/15 05:54:59;;;;;;;8.23;4.97;;;;;;;-3.13;100.00;96387.75;5068610;28;20286;-58
2022/01/15 05:57:24;;;;;;;10.10;5.30;;;;;;;-3.15;100.00;96394.44;5068849;28;20292;-58
2022/01/15 05:59:51;;;;;;;7.80;5.20;;;;;;;-3.14;100.00;96382.69;5068631;28;20586;-58
2022/01/15 06:02:18;;;;;;;8.50;5.00;;;;;;;-3.16;100.00;96390.19;5068671;28;20210;-58
2022/01/15 06:04:43;;;;;;;9.10;5.20;;;;;;;-3.15;100.00;96394.44;5068750;28;20193;-44
2022/01/15 06:07:08;;;;;;;9.83;4.77;;;;;;;-3.17;100.00;96396.63;5068734;28;20208;-62
2022/01/15 06:09:34;;;;;;;9.77;5.03;;;;;;;-3.16;100.00;96395.53;5071138;28;20198;-63
2022/01/15 06:12:01;;;;;;;8.87;5.87;;;;;;;-3.16;100.00;96387.53;5072458;28;20198;-63
2022/01/15 06:14:26;;;;;;;10.67;5.30;;;;;;;-3.20;100.00;96394.53;5072307;28;20198;-63
2022/01/15 06:16:52;;;;;;;9.47;5.57;;;;;;;-3.22;100.00;96391.34;5072089;28;20201;-63
2022/01/15 06:19:17;;;;;;;9.93;5.40;;;;;;;-3.18;100.00;96395.06;5072382;28;20197;-63
2022/01/15 06:21:42;;;;;;;14.53;6.60;;;;;;;-3.19;100.00;96393.44;5072453;28;20201;-56
2022/01/15 06:24:08;;;;;;;9.03;5.63;;;;;;;-3.20;100.00;96391.88;5072515;28;20201;-59
2022/01/15 06:26:33;;;;;;;9.10;5.53;;;;;;;-3.18;100.00;96389.72;5072333;28;20197;-59
2022/01/15 06:28:58;;;;;;;7.90;4.83;;;;;;;-3.17;100.00;96386.72;5072557;28;20247;-58
2022/01/15 06:31:23;;;;;;;11.57;6.43;;;;;;;-3.11;100.00;96398.13;5071842;28;20204;-58
2022/01/15 06:33:49;;;;;;;6.73;5.67;;;;;;;-3.04;100.00;96399.34;5072221;28;20209;-62
2022/01/15 06:36:14;;;;;;;9.43;6.30;;;;;;;-3.01;100.00;96400.63;5071860;28;20324;-58
2022/01/15 06:38:39;;;;;;;9.60;5.93;;;;;;;-2.96;100.00;96405.91;5071793;28;20205;-58
2022/01/15 06:41:05;;;;;;;9.67;6.07;;;;;;;-2.95;100.00;96402.13;5071896;28;20194;-58
2022/01/15 06:43:30;;;;;;;11.77;6.60;;;;;;;-2.93;100.00;96406.09;5071843;28;20253;-45
2022/01/15 06:45:55;;;;;;;10.43;6.27;;;;;;;-2.97;100.00;96409.63;5071833;28;20201;-45
2022/01/15 06:48:21;;;;;;;11.13;6.80;;;;;;;-2.94;100.00;96403.72;5072448;28;20198;-45
2022/01/15 06:50:46;;;;;;;11.33;6.77;;;;;;;-2.93;100.00;96410.63;5071681;28;20197;-47
2022/01/15 06:53:12;;;;;;;12.77;7.53;;;;;;;-2.89;100.00;96408.97;5071957;28;20197;-45
2022/01/15 06:55:37;;;;;;;14.10;7.67;;;;;;;-2.86;100.00;96405.72;5071845;28;20248;-45
2022/01/15 06:58:03;;;;;;;24.53;8.80;;;;;;;-2.84;100.00;96406.22;5071525;28;20182;-49
2022/01/15 07:00:28;;;;;;;14.37;7.90;;;;;;;-2.86;100.00;96411.84;5071561;28;20234;-52
2022/01/15 07:02:53;;;;;;;19.30;8.70;;;;;;;-2.85;100.00;96412.66;5071788;28;20197;-59
2022/01/15 07:05:20;;;;;;;31.83;9.70;;;;;;;-2.83;100.00;96405.13;5055533;28;20209;-58
2022/01/15 07:07:46;;;;;;;44.60;9.90;;;;;;;-2.89;100.00;96406.28;5071248;28;20202;-58
2022/01/15 07:10:13;;;;;;;50.07;10.07;;;;;;;-2.89;100.00;96406.28;5070990;28;20202;-58
2022/01/15 07:12:38;;;;;;;24.40;9.50;;;;;;;-2.88;100.00;96413.25;5071340;28;20225;-58
2022/01/15 07:15:04;;;;;;;21.90;10.00;;;;;;;-2.87;100.00;96409.47;5071327;28;20252;-58
2022/01/15 07:17:31;;;;;;;24.63;9.93;;;;;;;-2.86;100.00;96421.75;5071883;28;20288;-55
2022/01/15 07:19:56;;;;;;;22.97;9.03;;;;;;;-2.93;100.00;96421.31;5053472;28;20210;-65
2022/01/15 07:22:22;;;;;;;28.30;8.50;;;;;;;-2.93;100.00;96413.31;5071042;28;20190;-65
2022/01/15 07:24:47;;;;;;;38.87;9.80;;;;;;;-3.02;100.00;96412.41;5071110;28;20549;-64
2022/01/15 07:27:12;;;;;;;26.10;8.97;;;;;;;-3.06;100.00;96416.75;5070744;28;20292;-64
2022/01/15 07:29:39;;;;;;;32.63;10.20;;;;;;;-3.07;100.00;96420.50;5070921;28;20201;-65
2022/01/15 07:32:05;;;;;;;41.47;9.47;;;;;;;-3.05;100.00;96429.81;5070785;28;20197;-64
2022/01/15 07:34:30;;;;;;;39.00;11.13;;;;;;;-3.05;100.00;96423.66;5070585;28;20227;-66
2022/01/15 07:36:59;;;;;;;26.83;9.73;;;;;;;-2.95;100.00;96412.81;5070713;28;20202;-57
2022/01/15 07:39:26;;;;;;;31.27;10.20;;;;;;;-2.89;100.00;96423.13;5071388;28;20198;-57
2022/01/15 07:41:52;;;;;;;22.93;9.90;;;;;;;-2.79;100.00;96411.47;5070902;28;20198;-58
2022/01/15 07:44:18;;;;;;;22.17;9.83;;;;;;;-2.69;100.00;96411.31;5070966;28;20194;-58
2022/01/15 07:46:43;;;;;;;23.53;10.63;;;;;;;-2.70;100.00;96409.72;5070799;28;20293;-58
2022/01/15 07:49:08;;;;;;;26.83;10.33;;;;;;;-2.68;100.00;96413.69;5070691;28;20194;-58
2022/01/15 07:51:34;;;;;;;34.50;11.03;;;;;;;-2.61;100.00;96413.28;5070404;28;20205;-60
2022/01/15 07:53:59;;;;;;;22.03;10.50;;;;;;;-2.43;100.00;96415.09;5055463;28;20193;-57
2022/01/15 07:56:25;;;;;;;33.43;10.60;;;;;;;-2.43;100.00;96407.88;5070543;28;20297;-47
2022/01/15 07:58:50;;;;;;;51.07;11.70;;;;;;;-2.52;100.00;96406.19;5070560;28;20170;-53
2022/01/15 08:01:17;;;;;;;19.77;9.77;;;;;;;-2.40;100.00;96409.16;5070349;28;20208;-52
2022/01/15 08:03:42;;;;;;;33.53;11.13;;;;;;;-2.42;100.00;96403.31;5070862;28;20196;-53
2022/01/15 08:06:09;;;;;;;30.40;10.43;;;;;;;-2.44;100.00;96410.84;5070349;28;20202;-53
2022/01/15 08:08:34;;;;;;;22.57;10.60;;;;;;;-2.36;100.00;96404.81;5070317;28;20288;-53
2022/01/15 08:11:00;;;;;;;19.53;10.37;;;;;;;-2.38;100.00;96397.09;5069951;28;20221;-52
2022/01/15 08:13:26;;;;;;;30.90;11.03;;;;;;;-2.28;100.00;96401.44;5070733;28;20198;-57
2022/01/15 08:15:52;;;;;;;24.27;10.30;;;;;;;-2.12;100.00;96392.81;5069930;28;20260;-57
2022/01/15 08:18:18;;;;;;;63.17;13.00;;;;;;;-2.25;100.00;96395.50;5070603;28;20193;-56
2022/01/15 08:20:44;;;;;;;26.00;10.40;;;;;;;-1.97;100.00;96391.72;5070342;28;20189;-57
2022/01/15 08:23:09;;;;;;;18.57;12.23;;;;;;;-1.79;100.00;96386.25;5070440;28;20198;-57
2022/01/15 08:25:35;;;;;;;20.23;10.27;;;;;;;-1.82;100.00;96380.72;5070204;28;20231;-56
2022/01/15 08:28:01;;;;;;;15.57;10.37;;;;;;;-1.59;100.00;96382.34;5070504;28;20202;-56
2022/01/15 08:30:27;;;;;;;18.30;11.43;;;;;;;-1.66;100.00;96381.97;5070238;28;20208;-47
2022/01/15 08:32:52;;;;;;;21.27;12.50;;;;;;;-1.34;100.00;96381.75;5069315;28;20199;-57
2022/01/15 08:35:18;;;;;;;21.37;12.03;;;;;;;-1.07;100.00;96373.59;5070333;28;20212;-58
2022/01/15 08:37:44;;;;;;;26.97;11.90;;;;;;;-1.15;100.00;96371.66;5070313;28;20205;-58
2022/01/15 08:40:12;;;;;;;25.90;11.40;;;;;;;-1.15;100.00;96368.97;5069963;28;20201;-58
2022/01/15 08:42:38;;;;;;;17.87;10.83;;;;;;;-0.98;100.00;96363.75;5069998;28;20202;-59
2022/01/15 08:45:06;;;;;;;18.50;11.10;;;;;;;-0.69;100.00;96358.72;5070008;28;20202;-58
2022/01/15 08:47:31;;;;;;;18.23;11.57;;;;;;;-0.52;100.00;96361.47;5069782;28;20210;-58
2022/01/15 08:49:57;;;;;;;16.67;11.03;;;;;;;-0.22;100.00;96368.69;5070376;28;20217;-51
2022/01/15 08:52:23;;;;;;;14.30;10.23;;;;;;;0.00;100.00;96360.56;5070144;28;20268;-63
2022/01/15 08:54:49;;;;;;;16.23;11.40;;;;;;;0.67;100.00;96359.06;5069829;28;20307;-63
2022/01/15 08:57:14;;;;;;;19.90;12.33;;;;;;;1.73;100.00;96365.19;5069792;28;20210;-64
2022/01/15 08:59:39;;;;;;;16.10;11.03;;;;;;;2.52;100.00;96349.81;5069577;28;20178;-63
2022/01/15 09:02:05;;;;;;;14.83;10.47;;;;;;;3.39;100.00;96344.13;5053929;28;20201;-64
2022/01/15 09:04:31;;;;;;;13.87;10.40;;;;;;;3.58;100.00;96356.31;5069747;28;20288;-64
2022/01/15 09:06:56;;;;;;;14.87;11.40;;;;;;;3.75;100.00;96364.25;5069681;28;20259;-67
2022/01/15 09:09:21;;;;;;;14.60;10.87;;;;;;;4.13;100.00;96365.50;5069359;28;20252;-57
2022/01/15 09:11:47;;;;;;;15.00;11.17;;;;;;;4.11;100.00;96369.69;5069332;28;20213;-58
2022/01/15 09:14:12;;;;;;;15.10;12.30;;;;;;;4.33;100.00;96366.53;5069891;28;20201;-59
2022/01/15 09:16:38;;;;;;;14.57;11.47;;;;;;;4.71;100.00;96365.00;5069149;28;20303;-59
2022/01/15 09:19:03;;;;;;;13.27;11.43;;;;;;;4.88;100.00;96367.44;5069220;28;20267;-59
2022/01/15 09:21:29;;;;;;;15.73;11.73;;;;;;;5.06;100.00;96371.44;5069644;28;20291;-59
2022/01/15 09:23:54;;;;;;;14.03;11.57;;;;;;;4.55;100.00;96366.81;5069419;28;20205;-59
2022/01/15 09:26:45;;;;;;;14.97;11.53;;;;;;;4.56;100.00;96362.22;5069497;28;20194;-59
2022/01/15 09:31:54;;;;;;;14.77;11.50;;;;;;;3.83;100.00;96374.16;5054036;28;20211;-58
2022/01/15 09:34:19;;;;;;;14.63;12.03;;;;;;;3.63;100.00;96377.69;5068892;28;20197;-58
2022/01/15 09:36:44;;;;;;;13.53;11.80;;;;;;;3.63;100.00;96366.91;5068821;28;20206;-58
2022/01/15 09:39:10;;;;;;;15.23;12.03;;;;;;;3.50;100.00;96374.97;5069020;28;20225;-58
2022/01/15 09:41:38;;;;;;;14.13;11.73;;;;;;;3.93;100.00;96366.38;5068811;28;20219;-58
2022/01/15 09:44:05;;;;;;;14.27;11.73;;;;;;;4.23;100.00;96372.38;5070985;28;20236;-51
2022/01/15 09:46:32;;;;;;;14.97;12.43;;;;;;;3.89;100.00;96359.31;5072579;28;20202;-64
2022/01/15 09:48:59;;;;;;;15.80;12.47;;;;;;;3.50;100.00;96358.00;5072672;28;20205;-59
2022/01/15 09:51:24;;;;;;;14.67;12.00;;;;;;;3.58;100.00;96363.28;5073339;28;20192;-59
2022/01/15 09:53:50;;;;;;;16.13;12.93;;;;;;;3.42;100.00;96356.16;5072753;28;20210;-58
2022/01/15 09:56:16;;;;;;;16.93;13.40;;;;;;;2.70;100.00;96367.47;5072807;28;20215;-58
2022/01/15 09:58:41;;;;;;;16.00;12.60;;;;;;;2.21;100.00;96364.78;5072125;28;20201;-58
2022/01/15 10:01:06;;;;;;;17.03;12.80;;;;;;;1.95;100.00;96359.53;5072081;28;20246;-58
2022/01/15 10:03:32;;;;;;;19.73;14.67;;;;;;;1.93;100.00;96355.59;5072697;28;20203;-58
2022/01/15 10:06:03;;;;;;;19.97;13.67;;;;;;;1.24;100.00;96363.09;5072062;28;20203;-57
2022/01/15 10:08:28;;;;;;;18.03;12.77;;;;;;;1.09;100.00;96366.28;5072269;28;20256;-57
2022/01/15 10:10:55;;;;;;;17.03;13.00;;;;;;;0.95;100.00;96357.59;5072957;28;20194;-57
2022/01/15 10:13:23;;;;;;;20.47;12.97;;;;;;;0.75;100.00;96357.47;5072355;28;20237;-57
2022/01/15 10:16:08;;;;;;;21.10;13.40;;;;;;;0.73;100.00;96349.72;5072212;28;20217;-57
2022/01/15 10:18:35;;;;;;;18.33;13.53;;;;;;;0.62;100.00;96345.78;5055705;28;20201;-56
2022/01/15 10:21:13;;;;;;;17.63;12.50;;;;;;;0.65;100.00;96336.31;5071960;28;20197;-63
2022/01/15 10:23:48;;;;;;;18.90;13.40;;;;;;;0.72;100.00;96340.09;5055182;28;20209;-52
2022/01/15 10:26:32;;;;;;;20.03;13.97;;;;;;;0.24;100.00;96334.06;5055206;28;20201;-51
2022/01/15 10:29:06;;;;;;;22.93;14.63;;;;;;;0.38;100.00;96334.72;5071936;28;20296;-52
2022/01/15 10:31:38;;;;;;;22.20;15.03;;;;;;;0.25;100.00;96332.19;5071654;28;20275;-52
2022/01/15 10:34:25;;;;;;;22.63;15.13;;;;;;;0.52;100.00;96330.00;5071904;28;20236;-52
2022/01/15 10:36:50;;;;;;;30.63;15.83;;;;;;;0.40;100.00;96331.72;5072346;28;20206;-49
2022/01/15 10:39:19;;;;;;;26.80;16.27;;;;;;;0.05;100.00;96325.50;5072404;28;20282;-56
2022/01/15 10:41:46;;;;;;;38.10;17.20;;;;;;;-0.03;100.00;96321.69;5071515;28;20203;-57
2022/01/15 10:44:33;;;;;;;26.80;17.00;;;;;;;0.03;100.00;96311.59;5071790;28;20358;-64
2022/01/15 10:47:12;;;;;;;27.00;17.60;;;;;;;-0.02;100.00;96311.75;5071737;28;20203;-64
2022/01/15 10:49:39;;;;;;;46.87;16.67;;;;;;;-0.20;100.00;96310.16;5072248;28;20199;-65
2022/01/15 10:52:17;;;;;;;49.27;18.03;;;;;;;-0.20;100.00;96297.53;5071464;28;20204;-64
2022/01/15 10:54:51;;;;;;;39.67;17.80;;;;;;;-0.21;100.00;96300.53;5054870;28;20314;-64
2022/01/15 10:57:52;;;;;;;29.63;18.03;;;;;;;0.05;100.00;96296.00;5055712;28;20204;-56
2022/01/15 11:00:37;;;;;;;31.93;17.07;;;;;;;0.08;100.00;96292.69;5045905;28;20211;-62
2022/01/15 11:03:07;;;;;;;24.47;15.10;;;;;;;0.18;100.00;96292.34;5054844;28;20196;-64
2022/01/15 11:05:42;;;;;;;60.80;18.60;;;;;;;-0.02;100.00;96292.97;5071619;28;20203;-63
2022/01/15 11:08:14;;;;;;;35.60;14.53;;;;;;;0.05;100.00;96287.94;5072066;28;20236;-64
2022/01/15 11:10:42;;;;;;;30.93;13.67;;;;;;;-0.24;100.00;96295.78;5055586;28;20187;-65
2022/01/15 11:13:11;;;;;;;26.07;12.23;;;;;;;-0.28;100.00;96297.50;5054271;28;20206;-65
2022/01/15 11:15:39;;;;;;;23.47;12.57;;;;;;;-0.17;100.00;96296.88;5071168;28;20203;-63
2022/01/15 11:18:05;;;;;;;30.53;12.77;;;;;;;-0.22;100.00;96282.81;5071021;28;20202;-45
2022/01/15 11:20:33;;;;;;;32.83;12.30;;;;;;;-0.37;100.00;96280.56;5071037;28;20198;-52
2022/01/15 11:23:02;;;;;;;21.20;13.10;;;;;;;-0.39;100.00;96272.06;5071516;28;20202;-53
2022/01/15 11:25:28;;;;;;;40.00;15.20;;;;;;;-0.33;100.00;96268.91;5071183;28;20200;-52
2022/01/15 11:27:56;;;;;;;35.10;12.97;;;;;;;-0.33;100.00;96271.59;5071089;28;20281;-52
2022/01/15 11:30:21;;;;;;;26.20;12.67;;;;;;;-0.24;100.00;96260.91;5070851;28;20363;-53
2022/01/15 11:32:47;;;;;;;57.70;14.10;;;;;;;-0.35;100.00;96262.28;5070599;28;20655;-52
2022/01/15 11:35:12;;;;;;;25.63;14.00;;;;;;;-0.25;100.00;96259.31;5071019;28;20222;-65
2022/01/15 11:37:47;;;;;;;58.10;14.07;;;;;;;-0.32;100.00;96256.31;5071293;28;20210;-59